sensor_id;sensor_type;location;lat;lon;timestamp;temperature;humidity
31975;DHT22;18500;43.618;1.474;2023-04-15T07:24:03;11.30;1.00
31975;DHT22;18500;43.618;1.474;2023-04-15T07:26:29;11.20;1.00
31975;DHT22;18500;43.618;1.474;2023-04-15T07:28:54;11.20;1.00
31975;DHT22;18500;43.618;1.474;2023-04-15T07:31:20;11.40;1.00
31975;DHT22;18500;43.618;1.474;2023-04-15T07:33:46;11.50;1.00
31975;DHT22;18500;43.618;1.474;2023-04-15T07:36:12;11.60;1.00
31975;DHT22;18500;43.618;1.474;2023-04-15T07:38:38;11.50;1.00
31975;DHT22;18500;43.618;1.474;2023-04-15T07:41:04;11.50;1.00
31975;DHT22;18500;43.618;1.474;2023-04-15T07:43:29;11.50;1.00
31975;DHT22;18500;43.618;1.474;2023-04-15T07:45:55;11.50;1.00
31975;DHT22;18500;43.618;1.474;2023-04-15T07:48:21;11.50;1.00
31975;DHT22;18500;43.618;1.474;2023-04-15T07:50:47;11.30;1.00
31975;DHT22;18500;43.618;1.474;2023-04-15T07:53:12;11.30;1.00
31975;DHT22;18500;43.618;1.474;2023-04-15T07:55:39;11.40;1.00
31975;DHT22;18500;43.618;1.474;2023-04-15T07:58:04;11.30;1.00
31975;DHT22;18500;43.618;1.474;2023-04-15T08:00:30;11.40;1.00
31975;DHT22;18500;43.618;1.474;2023-04-15T08:02:56;11.40;1.00
31975;DHT22;18500;43.618;1.474;2023-04-15T08:05:23;11.40;1.00
31975;DHT22;18500;43.618;1.474;2023-04-15T08:07:50;11.50;1.00
31975;DHT22;18500;43.618;1.474;2023-04-15T08:10:16;11.40;1.00
31975;DHT22;18500;43.618;1.474;2023-04-15T08:12:42;11.40;1.00
31975;DHT22;18500;43.618;1.474;2023-04-15T08:15:08;11.10;99.90
31975;DHT22;18500;43.618;1.474;2023-04-15T08:17:34;11.30;99.90
31975;DHT22;18500;43.618;1.474;2023-04-15T08:19:59;11.40;99.90
31975;DHT22;18500;43.618;1.474;2023-04-15T08:22:25;11.60;99.90
31975;DHT22;18500;43.618;1.474;2023-04-15T08:24:51;11.50;99.90
31975;DHT22;18500;43.618;1.474;2023-04-15T08:27:17;11.50;99.90
31975;DHT22;18500;43.618;1.474;2023-04-15T08:29:43;11.30;46.90
31975;DHT22;18500;43.618;1.474;2023-04-15T08:32:10;11.40;1.00
31975;DHT22;18500;43.618;1.474;2023-04-15T08:34:35;11.50;1.00
31975;DHT22;18500;43.618;1.474;2023-04-15T08:37:01;11.50;1.00
31975;DHT22;18500;43.618;1.474;2023-04-15T08:39:27;11.50;99.90
31975;DHT22;18500;43.618;1.474;2023-04-15T08:42:01;11.60;99.90
31975;DHT22;18500;43.618;1.474;2023-04-15T08:44:29;11.30;99.90
31975;DHT22;18500;43.618;1.474;2023-04-15T08:47:00;11.00;1.00
31975;DHT22;18500;43.618;1.474;2023-04-15T08:49:28;11.10;99.90
31975;DHT22;18500;43.618;1.474;2023-04-15T08:51:54;10.90;99.90
31975;DHT22;18500;43.618;1.474;2023-04-15T08:54:22;11.10;30.10
31975;DHT22;18500;43.618;1.474;2023-04-15T08:56:47;11.30;1.00
31975;DHT22;18500;43.618;1.474;2023-04-15T08:59:14;11.20;99.90
31975;DHT22;18500;43.618;1.474;2023-04-15T09:01:41;11.20;99.90
31975;DHT22;18500;43.618;1.474;2023-04-15T09:04:06;11.50;1.00
31975;DHT22;18500;43.618;1.474;2023-04-15T09:06:33;11.20;99.90
31975;DHT22;18500;43.618;1.474;2023-04-15T09:08:59;10.80;1.00
31975;DHT22;18500;43.618;1.474;2023-04-15T09:11:25;10.90;99.90
31975;DHT22;18500;43.618;1.474;2023-04-15T09:13:51;10.50;62.40
31975;DHT22;18500;43.618;1.474;2023-04-15T09:16:17;10.50;1.00
31975;DHT22;18500;43.618;1.474;2023-04-15T09:18:43;10.80;1.00
31975;DHT22;18500;43.618;1.474;2023-04-15T09:21:16;10.70;99.90
31975;DHT22;18500;43.618;1.474;2023-04-15T09:23:55;10.70;1.00
31975;DHT22;18500;43.618;1.474;2023-04-15T09:26:33;10.80;1.00
31975;DHT22;18500;43.618;1.474;2023-04-15T09:29:09;10.90;99.90
31975;DHT22;18500;43.618;1.474;2023-04-15T09:31:38;10.50;21.80
31975;DHT22;18500;43.618;1.474;2023-04-15T09:34:05;11.00;99.90
31975;DHT22;18500;43.618;1.474;2023-04-15T09:39:12;11.30;1.00
31975;DHT22;18500;43.618;1.474;2023-04-15T09:41:38;11.40;99.90
31975;DHT22;18500;43.618;1.474;2023-04-15T09:44:05;11.90;78.00
31975;DHT22;18500;43.618;1.474;2023-04-15T09:46:44;12.30;39.20
31975;DHT22;18500;43.618;1.474;2023-04-15T09:49:11;12.70;19.00
31975;DHT22;18500;43.618;1.474;2023-04-15T09:51:37;12.80;4.10
31975;DHT22;18500;43.618;1.474;2023-04-15T09:54:03;12.50;1.00
31975;DHT22;18500;43.618;1.474;2023-04-15T09:56:37;12.30;1.00
31975;DHT22;18500;43.618;1.474;2023-04-15T09:59:06;12.40;1.00
31975;DHT22;18500;43.618;1.474;2023-04-15T10:01:32;12.60;1.00
31975;DHT22;18500;43.618;1.474;2023-04-15T10:03:58;13.00;1.00
31975;DHT22;18500;43.618;1.474;2023-04-15T10:06:26;13.10;1.00
31975;DHT22;18500;43.618;1.474;2023-04-15T10:08:53;12.90;1.00
31975;DHT22;18500;43.618;1.474;2023-04-15T10:11:20;13.10;1.00
31975;DHT22;18500;43.618;1.474;2023-04-15T10:13:49;13.30;1.00
31975;DHT22;18500;43.618;1.474;2023-04-15T10:16:17;12.70;1.00
31975;DHT22;18500;43.618;1.474;2023-04-15T10:18:45;12.80;1.00
31975;DHT22;18500;43.618;1.474;2023-04-15T10:21:11;12.90;1.00
31975;DHT22;18500;43.618;1.474;2023-04-15T10:23:38;13.10;1.00
31975;DHT22;18500;43.618;1.474;2023-04-15T10:26:05;13.50;1.00
31975;DHT22;18500;43.618;1.474;2023-04-15T10:28:31;13.40;1.00
31975;DHT22;18500;43.618;1.474;2023-04-15T10:30:57;13.30;1.00
31975;DHT22;18500;43.618;1.474;2023-04-15T10:33:24;13.10;1.00
31975;DHT22;18500;43.618;1.474;2023-04-15T10:35:52;13.10;1.00
31975;DHT22;18500;43.618;1.474;2023-04-15T10:38:42;13.60;1.00
31975;DHT22;18500;43.618;1.474;2023-04-15T10:43:37;13.70;1.00
31975;DHT22;18500;43.618;1.474;2023-04-15T10:46:05;13.30;1.00
31975;DHT22;18500;43.618;1.474;2023-04-15T10:48:31;13.00;1.00
31975;DHT22;18500;43.618;1.474;2023-04-15T10:50:59;13.40;1.00
31975;DHT22;18500;43.618;1.474;2023-04-15T10:53:27;13.50;1.00
31975;DHT22;18500;43.618;1.474;2023-04-15T10:55:54;13.70;1.00
31975;DHT22;18500;43.618;1.474;2023-04-15T10:58:25;13.80;1.00
31975;DHT22;18500;43.618;1.474;2023-04-15T11:00:52;13.90;1.00
31975;DHT22;18500;43.618;1.474;2023-04-15T11:03:36;14.00;1.00
31975;DHT22;18500;43.618;1.474;2023-04-15T11:06:03;13.80;1.00
31975;DHT22;18500;43.618;1.474;2023-04-15T11:08:52;14.10;1.00
31975;DHT22;18500;43.618;1.474;2023-04-15T11:11:18;13.90;1.00
31975;DHT22;18500;43.618;1.474;2023-04-15T11:13:48;14.10;1.00
31975;DHT22;18500;43.618;1.474;2023-04-15T11:16:14;13.70;1.00
31975;DHT22;18500;43.618;1.474;2023-04-15T11:18:40;13.90;1.00
31975;DHT22;18500;43.618;1.474;2023-04-15T11:21:06;13.90;1.00
31975;DHT22;18500;43.618;1.474;2023-04-15T11:25:59;13.90;1.00
31975;DHT22;18500;43.618;1.474;2023-04-15T11:28:29;13.70;1.00
31975;DHT22;18500;43.618;1.474;2023-04-15T11:30:56;13.80;1.00
31975;DHT22;18500;43.618;1.474;2023-04-15T11:33:22;13.80;1.00
31975;DHT22;18500;43.618;1.474;2023-04-15T11:35:51;14.20;1.00
31975;DHT22;18500;43.618;1.474;2023-04-15T11:38:18;13.90;1.00
31975;DHT22;18500;43.618;1.474;2023-04-15T11:40:44;14.10;1.00
31975;DHT22;18500;43.618;1.474;2023-04-15T11:43:20;14.30;1.00
31975;DHT22;18500;43.618;1.474;2023-04-15T11:45:56;14.70;1.00
31975;DHT22;18500;43.618;1.474;2023-04-15T11:48:23;14.80;1.00
31975;DHT22;18500;43.618;1.474;2023-04-15T11:51:16;15.10;1.00
31975;DHT22;18500;43.618;1.474;2023-04-15T11:53:46;15.20;1.00
31975;DHT22;18500;43.618;1.474;2023-04-15T11:56:22;14.90;1.00
31975;DHT22;18500;43.618;1.474;2023-04-15T11:58:58;15.10;1.00
31975;DHT22;18500;43.618;1.474;2023-04-15T12:01:40;15.20;1.00
31975;DHT22;18500;43.618;1.474;2023-04-15T12:04:16;15.00;1.00
31975;DHT22;18500;43.618;1.474;2023-04-15T12:06:45;15.10;1.00
31975;DHT22;18500;43.618;1.474;2023-04-15T12:09:17;15.20;1.00
31975;DHT22;18500;43.618;1.474;2023-04-15T12:11:49;15.00;1.00
31975;DHT22;18500;43.618;1.474;2023-04-15T12:14:28;15.40;1.00
31975;DHT22;18500;43.618;1.474;2023-04-15T12:17:00;15.90;1.00
31975;DHT22;18500;43.618;1.474;2023-04-15T12:19:38;15.80;1.00
31975;DHT22;18500;43.618;1.474;2023-04-15T12:22:07;16.00;1.00
31975;DHT22;18500;43.618;1.474;2023-04-15T12:24:34;15.20;1.00
31975;DHT22;18500;43.618;1.474;2023-04-15T12:27:02;15.00;1.00
31975;DHT22;18500;43.618;1.474;2023-04-15T12:29:29;15.10;1.00
31975;DHT22;18500;43.618;1.474;2023-04-15T12:32:11;15.20;1.00
31975;DHT22;18500;43.618;1.474;2023-04-15T12:34:51;16.40;1.00
31975;DHT22;18500;43.618;1.474;2023-04-15T12:37:17;17.50;1.00
31975;DHT22;18500;43.618;1.474;2023-04-15T12:39:45;19.50;1.00
31975;DHT22;18500;43.618;1.474;2023-04-15T12:42:13;22.20;1.00
31975;DHT22;18500;43.618;1.474;2023-04-15T12:44:39;21.90;1.00
31975;DHT22;18500;43.618;1.474;2023-04-15T12:47:06;20.30;1.00
31975;DHT22;18500;43.618;1.474;2023-04-15T12:49:32;18.80;1.00
31975;DHT22;18500;43.618;1.474;2023-04-15T12:51:59;19.60;1.00
31975;DHT22;18500;43.618;1.474;2023-04-15T12:54:25;17.80;1.00
31975;DHT22;18500;43.618;1.474;2023-04-15T12:56:52;19.20;1.00
31975;DHT22;18500;43.618;1.474;2023-04-15T12:59:18;19.40;1.00
31975;DHT22;18500;43.618;1.474;2023-04-15T13:01:45;22.20;1.00
31975;DHT22;18500;43.618;1.474;2023-04-15T13:04:10;24.70;1.00
31975;DHT22;18500;43.618;1.474;2023-04-15T13:06:36;21.80;1.00
31975;DHT22;18500;43.618;1.474;2023-04-15T13:09:03;24.10;1.00
31975;DHT22;18500;43.618;1.474;2023-04-15T13:11:30;23.60;1.00
31975;DHT22;18500;43.618;1.474;2023-04-15T13:14:03;23.00;1.00
31975;DHT22;18500;43.618;1.474;2023-04-15T13:16:30;23.00;1.00
31975;DHT22;18500;43.618;1.474;2023-04-15T13:18:57;23.30;1.00
31975;DHT22;18500;43.618;1.474;2023-04-15T13:21:23;24.60;1.00
31975;DHT22;18500;43.618;1.474;2023-04-15T13:23:49;24.10;1.00
31975;DHT22;18500;43.618;1.474;2023-04-15T13:26:17;27.00;1.00
31975;DHT22;18500;43.618;1.474;2023-04-15T13:28:43;25.40;1.00
31975;DHT22;18500;43.618;1.474;2023-04-15T13:31:09;23.60;1.00
31975;DHT22;18500;43.618;1.474;2023-04-15T13:33:35;22.90;1.00
31975;DHT22;18500;43.618;1.474;2023-04-15T13:36:01;23.80;1.00
31975;DHT22;18500;43.618;1.474;2023-04-15T13:38:26;25.50;1.00
31975;DHT22;18500;43.618;1.474;2023-04-15T13:40:52;25.90;1.00
31975;DHT22;18500;43.618;1.474;2023-04-15T13:43:18;25.90;1.00
31975;DHT22;18500;43.618;1.474;2023-04-15T13:45:45;27.00;1.00
31975;DHT22;18500;43.618;1.474;2023-04-15T13:48:10;22.60;1.00
31975;DHT22;18500;43.618;1.474;2023-04-15T13:50:36;21.20;1.00
31975;DHT22;18500;43.618;1.474;2023-04-15T13:53:02;19.70;1.00
31975;DHT22;18500;43.618;1.474;2023-04-15T13:55:27;23.10;1.00
31975;DHT22;18500;43.618;1.474;2023-04-15T13:57:53;20.70;1.00
31975;DHT22;18500;43.618;1.474;2023-04-15T14:00:19;20.20;1.00
31975;DHT22;18500;43.618;1.474;2023-04-15T14:02:44;18.00;1.00
31975;DHT22;18500;43.618;1.474;2023-04-15T14:05:11;23.20;1.00
31975;DHT22;18500;43.618;1.474;2023-04-15T14:07:36;26.30;1.00
31975;DHT22;18500;43.618;1.474;2023-04-15T14:10:02;25.60;1.00
31975;DHT22;18500;43.618;1.474;2023-04-15T14:12:28;22.70;1.00
31975;DHT22;18500;43.618;1.474;2023-04-15T14:14:54;19.00;1.00
31975;DHT22;18500;43.618;1.474;2023-04-15T14:17:19;17.30;1.00
31975;DHT22;18500;43.618;1.474;2023-04-15T14:19:45;17.10;1.00
31975;DHT22;18500;43.618;1.474;2023-04-15T14:22:11;17.00;1.00
31975;DHT22;18500;43.618;1.474;2023-04-15T14:24:36;16.70;1.00
31975;DHT22;18500;43.618;1.474;2023-04-15T14:27:02;16.40;1.00
31975;DHT22;18500;43.618;1.474;2023-04-15T14:29:28;16.40;1.00
31975;DHT22;18500;43.618;1.474;2023-04-15T14:31:54;15.80;1.00
31975;DHT22;18500;43.618;1.474;2023-04-15T14:34:21;15.70;1.00
31975;DHT22;18500;43.618;1.474;2023-04-15T14:36:50;15.80;1.00
31975;DHT22;18500;43.618;1.474;2023-04-15T14:39:16;16.70;1.00
31975;DHT22;18500;43.618;1.474;2023-04-15T14:41:42;16.30;1.00
31975;DHT22;18500;43.618;1.474;2023-04-15T14:44:07;15.70;1.00
31975;DHT22;18500;43.618;1.474;2023-04-15T14:46:34;16.10;1.00
31975;DHT22;18500;43.618;1.474;2023-04-15T14:49:00;16.40;1.00
31975;DHT22;18500;43.618;1.474;2023-04-15T14:51:25;16.50;1.00
31975;DHT22;18500;43.618;1.474;2023-04-15T14:53:51;16.90;1.00
31975;DHT22;18500;43.618;1.474;2023-04-15T14:56:16;16.80;1.00
31975;DHT22;18500;43.618;1.474;2023-04-15T14:58:42;16.50;1.00
31975;DHT22;18500;43.618;1.474;2023-04-15T15:01:08;16.20;1.00
31975;DHT22;18500;43.618;1.474;2023-04-15T15:03:34;16.00;1.00
31975;DHT22;18500;43.618;1.474;2023-04-15T15:05:59;16.40;1.00
31975;DHT22;18500;43.618;1.474;2023-04-15T15:08:25;16.30;1.00
31975;DHT22;18500;43.618;1.474;2023-04-15T15:10:52;16.40;1.00
31975;DHT22;18500;43.618;1.474;2023-04-15T15:13:17;16.30;1.00
31975;DHT22;18500;43.618;1.474;2023-04-15T15:15:43;16.30;1.00
31975;DHT22;18500;43.618;1.474;2023-04-15T15:18:09;15.70;1.00
31975;DHT22;18500;43.618;1.474;2023-04-15T15:20:35;15.50;1.00
31975;DHT22;18500;43.618;1.474;2023-04-15T15:23:01;15.90;1.00
31975;DHT22;18500;43.618;1.474;2023-04-15T15:25:27;16.30;1.00
31975;DHT22;18500;43.618;1.474;2023-04-15T15:27:53;16.10;1.00
31975;DHT22;18500;43.618;1.474;2023-04-15T15:30:18;16.50;1.00
31975;DHT22;18500;43.618;1.474;2023-04-15T15:32:44;16.70;1.00
31975;DHT22;18500;43.618;1.474;2023-04-15T15:35:10;16.20;1.00
31975;DHT22;18500;43.618;1.474;2023-04-15T15:37:36;15.90;1.00
31975;DHT22;18500;43.618;1.474;2023-04-15T15:40:05;15.80;1.00
31975;DHT22;18500;43.618;1.474;2023-04-15T15:42:31;16.40;1.00
31975;DHT22;18500;43.618;1.474;2023-04-15T15:44:57;16.60;1.00
31975;DHT22;18500;43.618;1.474;2023-04-15T15:47:23;16.40;1.00
31975;DHT22;18500;43.618;1.474;2023-04-15T15:49:51;16.20;1.00
31975;DHT22;18500;43.618;1.474;2023-04-15T15:52:16;16.40;1.00
31975;DHT22;18500;43.618;1.474;2023-04-15T15:54:42;16.40;1.00
31975;DHT22;18500;43.618;1.474;2023-04-15T15:57:08;16.30;1.00
31975;DHT22;18500;43.618;1.474;2023-04-15T15:59:34;16.20;1.00
31975;DHT22;18500;43.618;1.474;2023-04-15T16:02:00;16.30;1.00
31975;DHT22;18500;43.618;1.474;2023-04-15T16:04:25;16.60;1.00
31975;DHT22;18500;43.618;1.474;2023-04-15T16:06:51;16.50;1.00
31975;DHT22;18500;43.618;1.474;2023-04-15T16:09:17;16.40;1.00
31975;DHT22;18500;43.618;1.474;2023-04-15T16:11:46;16.40;1.00
31975;DHT22;18500;43.618;1.474;2023-04-15T16:14:11;16.30;1.00
31975;DHT22;18500;43.618;1.474;2023-04-15T16:16:38;16.10;1.00
31975;DHT22;18500;43.618;1.474;2023-04-15T16:19:04;16.10;1.00
31975;DHT22;18500;43.618;1.474;2023-04-15T16:21:29;16.00;1.00
31975;DHT22;18500;43.618;1.474;2023-04-15T16:23:56;15.90;1.00
31975;DHT22;18500;43.618;1.474;2023-04-15T16:26:22;15.60;1.00
31975;DHT22;18500;43.618;1.474;2023-04-15T16:28:47;15.60;1.00
31975;DHT22;18500;43.618;1.474;2023-04-15T16:31:13;15.60;1.00
31975;DHT22;18500;43.618;1.474;2023-04-15T16:33:39;15.50;1.00
31975;DHT22;18500;43.618;1.474;2023-04-15T16:36:05;15.20;1.00
31975;DHT22;18500;43.618;1.474;2023-04-15T16:38:31;15.20;1.00
31975;DHT22;18500;43.618;1.474;2023-04-15T16:40:58;15.40;1.00
31975;DHT22;18500;43.618;1.474;2023-04-15T16:43:25;15.70;1.00
31975;DHT22;18500;43.618;1.474;2023-04-15T16:45:51;15.70;1.00
31975;DHT22;18500;43.618;1.474;2023-04-15T16:48:17;15.70;1.00
31975;DHT22;18500;43.618;1.474;2023-04-15T16:50:43;15.60;1.00
31975;DHT22;18500;43.618;1.474;2023-04-15T16:53:08;15.50;1.00
31975;DHT22;18500;43.618;1.474;2023-04-15T16:55:34;15.30;1.00
31975;DHT22;18500;43.618;1.474;2023-04-15T16:58:00;15.20;1.00
31975;DHT22;18500;43.618;1.474;2023-04-15T17:00:26;15.20;1.00
31975;DHT22;18500;43.618;1.474;2023-04-15T17:02:57;15.30;1.00
31975;DHT22;18500;43.618;1.474;2023-04-15T17:05:23;15.20;1.00
31975;DHT22;18500;43.618;1.474;2023-04-15T17:07:49;15.10;1.00
31975;DHT22;18500;43.618;1.474;2023-04-15T17:10:14;15.00;1.00
31975;DHT22;18500;43.618;1.474;2023-04-15T17:12:40;14.90;1.00
31975;DHT22;18500;43.618;1.474;2023-04-15T17:15:06;15.00;1.00
31975;DHT22;18500;43.618;1.474;2023-04-15T17:17:32;14.80;1.00
31975;DHT22;18500;43.618;1.474;2023-04-15T17:19:58;14.70;1.00
31975;DHT22;18500;43.618;1.474;2023-04-15T17:22:24;14.70;1.00
31975;DHT22;18500;43.618;1.474;2023-04-15T17:24:49;14.70;1.00
31975;DHT22;18500;43.618;1.474;2023-04-15T17:27:15;14.60;1.00
31975;DHT22;18500;43.618;1.474;2023-04-15T17:29:41;14.60;1.00
31975;DHT22;18500;43.618;1.474;2023-04-15T17:32:06;14.50;1.00
31975;DHT22;18500;43.618;1.474;2023-04-15T17:34:32;14.50;1.00
31975;DHT22;18500;43.618;1.474;2023-04-15T17:36:58;14.40;1.00
31975;DHT22;18500;43.618;1.474;2023-04-15T17:39:23;14.40;1.00
31975;DHT22;18500;43.618;1.474;2023-04-15T17:41:49;14.30;1.00
31975;DHT22;18500;43.618;1.474;2023-04-15T17:44:15;14.30;1.00
31975;DHT22;18500;43.618;1.474;2023-04-15T17:46:40;14.20;1.00
31975;DHT22;18500;43.618;1.474;2023-04-15T17:49:06;14.10;1.00
31975;DHT22;18500;43.618;1.474;2023-04-15T17:51:32;14.10;1.00
31975;DHT22;18500;43.618;1.474;2023-04-15T17:53:58;14.00;1.00
31975;DHT22;18500;43.618;1.474;2023-04-15T17:56:23;14.00;1.00
31975;DHT22;18500;43.618;1.474;2023-04-15T17:58:50;14.00;1.00
31975;DHT22;18500;43.618;1.474;2023-04-15T18:01:16;14.00;1.00
31975;DHT22;18500;43.618;1.474;2023-04-15T18:03:43;13.90;1.00
31975;DHT22;18500;43.618;1.474;2023-04-15T18:06:10;13.90;1.00
31975;DHT22;18500;43.618;1.474;2023-04-15T18:08:36;13.80;1.00
31975;DHT22;18500;43.618;1.474;2023-04-15T18:11:02;13.80;1.00
31975;DHT22;18500;43.618;1.474;2023-04-15T18:13:27;13.70;1.00
31975;DHT22;18500;43.618;1.474;2023-04-15T18:15:54;13.70;1.00
31975;DHT22;18500;43.618;1.474;2023-04-15T18:18:20;13.70;1.00
31975;DHT22;18500;43.618;1.474;2023-04-15T18:20:45;13.60;1.00
31975;DHT22;18500;43.618;1.474;2023-04-15T18:23:11;13.60;1.00
31975;DHT22;18500;43.618;1.474;2023-04-15T18:25:39;13.50;1.00
31975;DHT22;18500;43.618;1.474;2023-04-15T18:28:08;13.30;1.00
31975;DHT22;18500;43.618;1.474;2023-04-15T18:30:34;13.30;1.00
31975;DHT22;18500;43.618;1.474;2023-04-15T18:32:59;13.20;1.00
31975;DHT22;18500;43.618;1.474;2023-04-15T18:35:25;13.00;1.00
31975;DHT22;18500;43.618;1.474;2023-04-15T18:37:55;13.00;1.00
31975;DHT22;18500;43.618;1.474;2023-04-15T18:40:21;12.80;1.00
31975;DHT22;18500;43.618;1.474;2023-04-15T18:42:46;12.80;1.00
31975;DHT22;18500;43.618;1.474;2023-04-15T18:45:12;12.70;1.00
31975;DHT22;18500;43.618;1.474;2023-04-15T18:47:38;12.70;1.00
31975;DHT22;18500;43.618;1.474;2023-04-15T18:50:04;12.70;1.00
31975;DHT22;18500;43.618;1.474;2023-04-15T18:52:29;12.60;1.00
31975;DHT22;18500;43.618;1.474;2023-04-15T18:54:55;12.60;1.00
31975;DHT22;18500;43.618;1.474;2023-04-15T18:57:21;12.40;1.00
31975;DHT22;18500;43.618;1.474;2023-04-15T18:59:47;12.40;1.00
31975;DHT22;18500;43.618;1.474;2023-04-15T19:02:12;12.40;1.00
31975;DHT22;18500;43.618;1.474;2023-04-15T19:04:38;12.20;1.00
31975;DHT22;18500;43.618;1.474;2023-04-15T19:07:03;12.10;1.00
31975;DHT22;18500;43.618;1.474;2023-04-15T19:09:29;12.10;1.00
31975;DHT22;18500;43.618;1.474;2023-04-15T19:11:55;12.10;1.00
31975;DHT22;18500;43.618;1.474;2023-04-15T19:14:21;12.00;1.00
31975;DHT22;18500;43.618;1.474;2023-04-15T19:16:47;12.00;1.00
31975;DHT22;18500;43.618;1.474;2023-04-15T19:19:13;12.00;1.00
31975;DHT22;18500;43.618;1.474;2023-04-15T19:21:39;12.00;1.00
31975;DHT22;18500;43.618;1.474;2023-04-15T19:24:05;11.90;1.00
31975;DHT22;18500;43.618;1.474;2023-04-15T19:26:31;11.90;1.00
31975;DHT22;18500;43.618;1.474;2023-04-15T19:28:57;11.90;1.00
31975;DHT22;18500;43.618;1.474;2023-04-15T19:31:23;11.80;1.00
31975;DHT22;18500;43.618;1.474;2023-04-15T19:33:50;11.70;1.00
31975;DHT22;18500;43.618;1.474;2023-04-15T19:36:16;11.70;1.00
31975;DHT22;18500;43.618;1.474;2023-04-15T19:38:43;11.80;1.00
31975;DHT22;18500;43.618;1.474;2023-04-15T19:41:08;11.80;1.00
31975;DHT22;18500;43.618;1.474;2023-04-15T19:43:35;11.70;1.00
31975;DHT22;18500;43.618;1.474;2023-04-15T19:46:01;11.80;1.00
31975;DHT22;18500;43.618;1.474;2023-04-15T19:48:26;11.70;1.00
31975;DHT22;18500;43.618;1.474;2023-04-15T19:50:52;11.50;1.00
31975;DHT22;18500;43.618;1.474;2023-04-15T19:53:18;11.60;1.00
31975;DHT22;18500;43.618;1.474;2023-04-15T19:55:43;11.50;1.00
31975;DHT22;18500;43.618;1.474;2023-04-15T19:58:10;11.50;1.00
31975;DHT22;18500;43.618;1.474;2023-04-15T20:00:35;11.40;1.00
31975;DHT22;18500;43.618;1.474;2023-04-15T20:03:01;11.40;1.00
31975;DHT22;18500;43.618;1.474;2023-04-15T20:05:27;11.40;1.00
31975;DHT22;18500;43.618;1.474;2023-04-15T20:07:52;11.30;1.00
31975;DHT22;18500;43.618;1.474;2023-04-15T20:10:21;11.30;1.00
31975;DHT22;18500;43.618;1.474;2023-04-15T20:12:48;11.20;1.00
31975;DHT22;18500;43.618;1.474;2023-04-15T20:15:14;11.00;1.00
31975;DHT22;18500;43.618;1.474;2023-04-15T20:17:40;11.10;1.00
31975;DHT22;18500;43.618;1.474;2023-04-15T20:20:06;11.20;1.00
31975;DHT22;18500;43.618;1.474;2023-04-15T20:22:33;11.20;1.00
31975;DHT22;18500;43.618;1.474;2023-04-15T20:25:02;11.00;1.00
31975;DHT22;18500;43.618;1.474;2023-04-15T20:27:28;11.00;1.00
31975;DHT22;18500;43.618;1.474;2023-04-15T20:29:53;11.10;1.00
31975;DHT22;18500;43.618;1.474;2023-04-15T20:32:19;11.20;1.00
31975;DHT22;18500;43.618;1.474;2023-04-15T20:34:46;11.10;1.00
31975;DHT22;18500;43.618;1.474;2023-04-15T20:37:12;11.20;1.00
31975;DHT22;18500;43.618;1.474;2023-04-15T20:39:39;11.20;1.00
31975;DHT22;18500;43.618;1.474;2023-04-15T20:42:05;11.20;1.00
31975;DHT22;18500;43.618;1.474;2023-04-15T20:44:38;11.20;1.00
31975;DHT22;18500;43.618;1.474;2023-04-15T20:47:04;11.10;1.00
31975;DHT22;18500;43.618;1.474;2023-04-15T20:49:34;11.10;1.00
31975;DHT22;18500;43.618;1.474;2023-04-15T20:52:00;11.00;1.00
31975;DHT22;18500;43.618;1.474;2023-04-15T20:54:25;11.00;1.00
31975;DHT22;18500;43.618;1.474;2023-04-15T20:56:51;11.00;1.00
31975;DHT22;18500;43.618;1.474;2023-04-15T20:59:17;11.00;1.00
31975;DHT22;18500;43.618;1.474;2023-04-15T21:01:42;11.00;1.00
31975;DHT22;18500;43.618;1.474;2023-04-15T21:04:09;11.10;1.00
31975;DHT22;18500;43.618;1.474;2023-04-15T21:06:35;11.10;1.00
31975;DHT22;18500;43.618;1.474;2023-04-15T21:09:01;11.20;1.00
31975;DHT22;18500;43.618;1.474;2023-04-15T21:11:26;11.20;1.00
31975;DHT22;18500;43.618;1.474;2023-04-15T21:13:52;11.20;1.00
31975;DHT22;18500;43.618;1.474;2023-04-15T21:16:18;11.10;1.00
31975;DHT22;18500;43.618;1.474;2023-04-15T21:18:43;11.00;1.00
31975;DHT22;18500;43.618;1.474;2023-04-15T21:21:09;10.90;1.00
31975;DHT22;18500;43.618;1.474;2023-04-15T21:23:34;10.90;1.00
31975;DHT22;18500;43.618;1.474;2023-04-15T21:26:01;10.90;1.00
31975;DHT22;18500;43.618;1.474;2023-04-15T21:28:26;10.90;1.00
31975;DHT22;18500;43.618;1.474;2023-04-15T21:30:52;10.80;1.00
31975;DHT22;18500;43.618;1.474;2023-04-15T21:33:18;10.80;1.00
31975;DHT22;18500;43.618;1.474;2023-04-15T21:35:44;10.70;1.00
31975;DHT22;18500;43.618;1.474;2023-04-15T21:38:10;10.60;1.00
31975;DHT22;18500;43.618;1.474;2023-04-15T21:40:36;10.60;1.00
31975;DHT22;18500;43.618;1.474;2023-04-15T21:43:05;10.60;1.00
31975;DHT22;18500;43.618;1.474;2023-04-15T21:45:32;10.60;1.00
31975;DHT22;18500;43.618;1.474;2023-04-15T21:47:58;10.60;1.00
31975;DHT22;18500;43.618;1.474;2023-04-15T21:50:23;10.70;1.00
31975;DHT22;18500;43.618;1.474;2023-04-15T21:52:49;10.60;1.00
31975;DHT22;18500;43.618;1.474;2023-04-15T21:55:15;10.60;1.00
31975;DHT22;18500;43.618;1.474;2023-04-15T21:57:40;10.60;1.00
31975;DHT22;18500;43.618;1.474;2023-04-15T22:00:07;10.50;1.00
31975;DHT22;18500;43.618;1.474;2023-04-15T22:02:33;10.40;1.00
31975;DHT22;18500;43.618;1.474;2023-04-15T22:04:58;10.30;1.00
31975;DHT22;18500;43.618;1.474;2023-04-15T22:07:24;10.30;1.00
31975;DHT22;18500;43.618;1.474;2023-04-15T22:09:50;10.20;1.00
31975;DHT22;18500;43.618;1.474;2023-04-15T22:12:15;10.30;1.00
31975;DHT22;18500;43.618;1.474;2023-04-15T22:14:41;10.20;1.00
31975;DHT22;18500;43.618;1.474;2023-04-15T22:17:07;10.20;1.00
31975;DHT22;18500;43.618;1.474;2023-04-15T22:19:32;10.20;1.00
31975;DHT22;18500;43.618;1.474;2023-04-15T22:21:58;10.10;1.00
31975;DHT22;18500;43.618;1.474;2023-04-15T22:24:24;10.10;1.00
31975;DHT22;18500;43.618;1.474;2023-04-15T22:26:49;10.10;1.00
31975;DHT22;18500;43.618;1.474;2023-04-15T22:29:15;10.10;1.00
31975;DHT22;18500;43.618;1.474;2023-04-15T22:31:41;10.10;1.00
31975;DHT22;18500;43.618;1.474;2023-04-15T22:34:07;10.00;1.00
31975;DHT22;18500;43.618;1.474;2023-04-15T22:36:33;10.00;1.00
31975;DHT22;18500;43.618;1.474;2023-04-15T22:38:58;10.00;1.00
31975;DHT22;18500;43.618;1.474;2023-04-15T22:41:24;9.90;1.00
31975;DHT22;18500;43.618;1.474;2023-04-15T22:43:50;9.80;1.00
31975;DHT22;18500;43.618;1.474;2023-04-15T22:46:15;9.90;1.00
31975;DHT22;18500;43.618;1.474;2023-04-15T22:48:41;9.90;1.00
31975;DHT22;18500;43.618;1.474;2023-04-15T22:51:07;9.80;1.00
31975;DHT22;18500;43.618;1.474;2023-04-15T22:53:33;9.80;1.00
31975;DHT22;18500;43.618;1.474;2023-04-15T22:55:58;9.80;1.00
31975;DHT22;18500;43.618;1.474;2023-04-15T22:58:24;9.70;1.00
31975;DHT22;18500;43.618;1.474;2023-04-15T23:00:50;9.60;1.00
31975;DHT22;18500;43.618;1.474;2023-04-15T23:03:15;9.60;1.00
31975;DHT22;18500;43.618;1.474;2023-04-15T23:05:41;9.50;1.00
31975;DHT22;18500;43.618;1.474;2023-04-15T23:08:09;9.40;1.00
31975;DHT22;18500;43.618;1.474;2023-04-15T23:10:35;9.40;1.00
31975;DHT22;18500;43.618;1.474;2023-04-15T23:13:00;9.40;1.00